LFML 171900Z AUTO 31015KT CAVOK 10/03 Q1027 BECMG VRB03KT

ElémentsDécodage
LFML Station météo située sur l'aérodrome de MARSEILLE PROVENCE
171900Z émis le 17 du mois à 19h00 UTC
AUTO Bulletin édité par un automate
31015KT vent du 310°, 15 noeuds
CAVOK Ceiling And Visibility OK
- Visibilité de 10 Km ou plus
- Pas de nuage au-dessous de 1500m ou au-dessous de l'altitude minimale du secteur la plus élevée (si>1500m) et absence de CB
- pas de temps présent significatif
10/03 température 10°C, point de rosée 03°C
 soit une humidité relative de 62%
Q1027 la pression au niveau de la mer (QNH) est de 1027 hPa
BECMG fluctuation du temps prévue
VRB03KT vent de direction variable, 03 noeuds